Highland, Kansas
Current Conditions -  °F | °C
As of 1:53 PM on Thursday 29 Jan 2015 (Local Time) from KSTJ Reporting Station
Overcast Overcast  
Wind Chill: 30°   Ceiling: 3300
Heat Index: 41°   Visibility: 10mi
Dew Point: 26°   Wind: 26mph
Humidity: 55%   Direction: 350°N
Pressure: 30.38"   Gusts: 32mph
Location:  39.86°N, 95.27°W
Report Text: KSTJ 291953Z 35023G28KT 10SM OVC033 05/M03 A3038 RMK AO2 PK WND 34030/1910 SLP292 T00501033
Loading
Personal Weather Stations






























Interactive Weather Map New forecast layout! Learn more

10-Day Weather Forecast

Advertisements
Track Severe Weather on mobile